sensor_id;sensor_type;location;lat;lon;timestamp;temperature;humidity
2050;DHT22;8478;49.208;8.806;2023-10-13T00:02:00;17.60;99.90
2050;DHT22;8478;49.208;8.806;2023-10-13T00:04:27;17.60;99.90
2050;DHT22;8478;49.208;8.806;2023-10-13T00:06:54;17.60;99.90
2050;DHT22;8478;49.208;8.806;2023-10-13T00:09:25;17.60;99.90
2050;DHT22;8478;49.208;8.806;2023-10-13T00:11:58;17.60;99.90
2050;DHT22;8478;49.208;8.806;2023-10-13T00:14:24;17.60;99.90
2050;DHT22;8478;49.208;8.806;2023-10-13T00:17:01;17.60;99.90
2050;DHT22;8478;49.208;8.806;2023-10-13T00:19:37;17.60;99.90
2050;DHT22;8478;49.208;8.806;2023-10-13T00:22:08;17.60;99.90
2050;DHT22;8478;49.208;8.806;2023-10-13T00:24:38;17.60;99.90
2050;DHT22;8478;49.208;8.806;2023-10-13T00:27:18;17.60;99.90
2050;DHT22;8478;49.208;8.806;2023-10-13T00:29:56;17.60;99.90
2050;DHT22;8478;49.208;8.806;2023-10-13T00:32:40;17.60;99.90
2050;DHT22;8478;49.208;8.806;2023-10-13T00:35:09;17.60;99.90
2050;DHT22;8478;49.208;8.806;2023-10-13T00:37:37;17.60;99.90
2050;DHT22;8478;49.208;8.806;2023-10-13T00:40:11;17.60;99.90
2050;DHT22;8478;49.208;8.806;2023-10-13T00:42:57;17.60;99.90
2050;DHT22;8478;49.208;8.806;2023-10-13T00:45:43;17.60;99.90
2050;DHT22;8478;49.208;8.806;2023-10-13T00:48:10;17.60;99.90
2050;DHT22;8478;49.208;8.806;2023-10-13T00:50:39;17.60;99.90
2050;DHT22;8478;49.208;8.806;2023-10-13T00:53:06;17.60;99.90
2050;DHT22;8478;49.208;8.806;2023-10-13T00:55:33;17.60;99.90
2050;DHT22;8478;49.208;8.806;2023-10-13T00:58:03;17.60;99.90
2050;DHT22;8478;49.208;8.806;2023-10-13T01:00:32;17.60;99.90
2050;DHT22;8478;49.208;8.806;2023-10-13T01:02:59;17.60;99.90
2050;DHT22;8478;49.208;8.806;2023-10-13T01:05:32;17.60;99.90
2050;DHT22;8478;49.208;8.806;2023-10-13T01:08:02;17.60;99.90
2050;DHT22;8478;49.208;8.806;2023-10-13T01:10:28;17.60;99.90
2050;DHT22;8478;49.208;8.806;2023-10-13T01:12:58;17.60;99.90
2050;DHT22;8478;49.208;8.806;2023-10-13T01:15:27;17.60;99.90
2050;DHT22;8478;49.208;8.806;2023-10-13T01:18:11;17.60;99.90
2050;DHT22;8478;49.208;8.806;2023-10-13T01:20:39;17.60;99.90
2050;DHT22;8478;49.208;8.806;2023-10-13T01:23:13;17.60;99.90
2050;DHT22;8478;49.208;8.806;2023-10-13T01:25:47;17.60;99.90
2050;DHT22;8478;49.208;8.806;2023-10-13T01:28:13;17.60;99.90
2050;DHT22;8478;49.208;8.806;2023-10-13T01:30:42;17.60;99.90
2050;DHT22;8478;49.208;8.806;2023-10-13T01:33:08;17.60;99.90
2050;DHT22;8478;49.208;8.806;2023-10-13T01:35:39;17.60;99.90
2050;DHT22;8478;49.208;8.806;2023-10-13T01:38:13;17.60;99.90
2050;DHT22;8478;49.208;8.806;2023-10-13T01:40:39;17.60;99.90
2050;DHT22;8478;49.208;8.806;2023-10-13T01:43:05;17.60;99.90
2050;DHT22;8478;49.208;8.806;2023-10-13T01:45:40;17.60;99.90
2050;DHT22;8478;49.208;8.806;2023-10-13T01:48:12;17.60;99.90
2050;DHT22;8478;49.208;8.806;2023-10-13T01:50:43;17.60;99.90
2050;DHT22;8478;49.208;8.806;2023-10-13T01:53:13;17.60;99.90
2050;DHT22;8478;49.208;8.806;2023-10-13T01:55:43;17.60;99.90
2050;DHT22;8478;49.208;8.806;2023-10-13T01:58:13;17.60;99.90
2050;DHT22;8478;49.208;8.806;2023-10-13T02:00:46;17.60;99.90
2050;DHT22;8478;49.208;8.806;2023-10-13T02:03:13;17.60;99.90
2050;DHT22;8478;49.208;8.806;2023-10-13T02:05:43;17.60;99.90
2050;DHT22;8478;49.208;8.806;2023-10-13T02:08:18;17.60;99.90
2050;DHT22;8478;49.208;8.806;2023-10-13T02:10:54;17.60;99.90
2050;DHT22;8478;49.208;8.806;2023-10-13T02:13:23;17.60;99.90
2050;DHT22;8478;49.208;8.806;2023-10-13T02:15:53;17.60;99.90
2050;DHT22;8478;49.208;8.806;2023-10-13T02:18:23;17.60;99.90
2050;DHT22;8478;49.208;8.806;2023-10-13T02:21:07;17.60;99.90
2050;DHT22;8478;49.208;8.806;2023-10-13T02:23:39;17.50;99.90
2050;DHT22;8478;49.208;8.806;2023-10-13T02:26:09;17.50;99.90
2050;DHT22;8478;49.208;8.806;2023-10-13T02:28:40;17.50;99.90
2050;DHT22;8478;49.208;8.806;2023-10-13T02:31:06;17.50;99.90
2050;DHT22;8478;49.208;8.806;2023-10-13T02:33:33;17.60;99.90
2050;DHT22;8478;49.208;8.806;2023-10-13T02:36:01;17.60;99.90
2050;DHT22;8478;49.208;8.806;2023-10-13T02:38:31;17.50;99.90
2050;DHT22;8478;49.208;8.806;2023-10-13T02:43:38;17.50;99.90
2050;DHT22;8478;49.208;8.806;2023-10-13T02:46:04;17.50;99.90
2050;DHT22;8478;49.208;8.806;2023-10-13T02:48:30;17.50;99.90
2050;DHT22;8478;49.208;8.806;2023-10-13T02:51:06;17.50;99.90
2050;DHT22;8478;49.208;8.806;2023-10-13T02:53:41;17.50;99.90
2050;DHT22;8478;49.208;8.806;2023-10-13T02:56:07;17.50;99.90
2050;DHT22;8478;49.208;8.806;2023-10-13T02:58:33;17.50;99.90
2050;DHT22;8478;49.208;8.806;2023-10-13T03:01:08;17.50;99.90
2050;DHT22;8478;49.208;8.806;2023-10-13T03:03:43;17.50;99.90
2050;DHT22;8478;49.208;8.806;2023-10-13T03:06:13;17.50;99.90
2050;DHT22;8478;49.208;8.806;2023-10-13T03:08:39;17.50;99.90
2050;DHT22;8478;49.208;8.806;2023-10-13T03:11:05;17.50;99.90
2050;DHT22;8478;49.208;8.806;2023-10-13T03:13:31;17.50;99.90
2050;DHT22;8478;49.208;8.806;2023-10-13T03:16:00;17.50;99.90
2050;DHT22;8478;49.208;8.806;2023-10-13T03:18:25;17.50;99.90
2050;DHT22;8478;49.208;8.806;2023-10-13T03:20:51;17.50;99.90
2050;DHT22;8478;49.208;8.806;2023-10-13T03:23:22;17.50;99.90
2050;DHT22;8478;49.208;8.806;2023-10-13T03:25:49;17.50;99.90
2050;DHT22;8478;49.208;8.806;2023-10-13T03:28:15;17.50;99.90
2050;DHT22;8478;49.208;8.806;2023-10-13T03:30:43;17.50;99.90
2050;DHT22;8478;49.208;8.806;2023-10-13T03:33:09;17.50;99.90
2050;DHT22;8478;49.208;8.806;2023-10-13T03:35:37;17.50;99.90
2050;DHT22;8478;49.208;8.806;2023-10-13T03:38:04;17.50;99.90
2050;DHT22;8478;49.208;8.806;2023-10-13T03:40:35;17.50;99.90
2050;DHT22;8478;49.208;8.806;2023-10-13T03:43:01;17.50;99.90
2050;DHT22;8478;49.208;8.806;2023-10-13T03:45:34;17.50;99.90
2050;DHT22;8478;49.208;8.806;2023-10-13T03:48:15;17.50;99.90
2050;DHT22;8478;49.208;8.806;2023-10-13T03:50:50;17.50;99.90
2050;DHT22;8478;49.208;8.806;2023-10-13T03:53:35;17.50;99.90
2050;DHT22;8478;49.208;8.806;2023-10-13T03:56:05;17.50;99.90
2050;DHT22;8478;49.208;8.806;2023-10-13T03:58:38;17.50;99.90
2050;DHT22;8478;49.208;8.806;2023-10-13T04:01:07;17.50;99.90
2050;DHT22;8478;49.208;8.806;2023-10-13T04:03:35;17.40;99.90
2050;DHT22;8478;49.208;8.806;2023-10-13T04:06:05;17.50;99.90
2050;DHT22;8478;49.208;8.806;2023-10-13T04:08:41;17.40;99.90
2050;DHT22;8478;49.208;8.806;2023-10-13T04:11:13;17.40;99.90
2050;DHT22;8478;49.208;8.806;2023-10-13T04:13:57;17.40;99.90
2050;DHT22;8478;49.208;8.806;2023-10-13T04:16:41;17.40;99.90
2050;DHT22;8478;49.208;8.806;2023-10-13T04:19:18;17.40;99.90
2050;DHT22;8478;49.208;8.806;2023-10-13T04:21:51;17.40;99.90
2050;DHT22;8478;49.208;8.806;2023-10-13T04:24:24;17.40;99.90
2050;DHT22;8478;49.208;8.806;2023-10-13T04:27:25;17.40;99.90
2050;DHT22;8478;49.208;8.806;2023-10-13T04:30:19;17.40;99.90
2050;DHT22;8478;49.208;8.806;2023-10-13T04:32:52;17.40;99.90
2050;DHT22;8478;49.208;8.806;2023-10-13T04:35:38;17.40;99.90
2050;DHT22;8478;49.208;8.806;2023-10-13T04:38:13;17.40;99.90
2050;DHT22;8478;49.208;8.806;2023-10-13T04:40:45;17.40;99.90
2050;DHT22;8478;49.208;8.806;2023-10-13T04:43:24;17.40;99.90
2050;DHT22;8478;49.208;8.806;2023-10-13T04:46:19;17.40;99.90
2050;DHT22;8478;49.208;8.806;2023-10-13T04:49:01;17.40;99.90
2050;DHT22;8478;49.208;8.806;2023-10-13T04:51:46;17.40;99.90
2050;DHT22;8478;49.208;8.806;2023-10-13T04:54:18;17.40;99.90
2050;DHT22;8478;49.208;8.806;2023-10-13T04:57:15;17.40;99.90
2050;DHT22;8478;49.208;8.806;2023-10-13T05:00:06;17.40;99.90
2050;DHT22;8478;49.208;8.806;2023-10-13T05:02:44;17.40;99.90
2050;DHT22;8478;49.208;8.806;2023-10-13T05:05:25;17.40;99.90
2050;DHT22;8478;49.208;8.806;2023-10-13T05:07:52;17.40;99.90
2050;DHT22;8478;49.208;8.806;2023-10-13T05:10:37;17.40;99.90
2050;DHT22;8478;49.208;8.806;2023-10-13T05:13:21;17.40;99.90
2050;DHT22;8478;49.208;8.806;2023-10-13T05:16:06;17.40;99.90
2050;DHT22;8478;49.208;8.806;2023-10-13T05:18:50;17.40;99.90
2050;DHT22;8478;49.208;8.806;2023-10-13T05:21:35;17.40;99.90
2050;DHT22;8478;49.208;8.806;2023-10-13T05:24:19;17.40;99.90
2050;DHT22;8478;49.208;8.806;2023-10-13T05:27:03;17.40;99.90
2050;DHT22;8478;49.208;8.806;2023-10-13T05:29:48;17.40;99.90
2050;DHT22;8478;49.208;8.806;2023-10-13T05:32:33;17.40;99.90
2050;DHT22;8478;49.208;8.806;2023-10-13T05:35:19;17.30;99.90
2050;DHT22;8478;49.208;8.806;2023-10-13T05:38:04;17.30;99.90
2050;DHT22;8478;49.208;8.806;2023-10-13T05:43:40;17.40;99.90
2050;DHT22;8478;49.208;8.806;2023-10-13T05:46:25;17.30;99.90
2050;DHT22;8478;49.208;8.806;2023-10-13T05:48:54;17.30;99.90
2050;DHT22;8478;49.208;8.806;2023-10-13T05:51:26;17.30;99.90
2050;DHT22;8478;49.208;8.806;2023-10-13T05:54:02;17.30;99.90
2050;DHT22;8478;49.208;8.806;2023-10-13T05:56:44;17.30;99.90
2050;DHT22;8478;49.208;8.806;2023-10-13T05:59:29;17.30;99.90
2050;DHT22;8478;49.208;8.806;2023-10-13T06:02:15;17.30;99.90
2050;DHT22;8478;49.208;8.806;2023-10-13T06:05:07;17.30;99.90
2050;DHT22;8478;49.208;8.806;2023-10-13T06:07:52;17.30;99.90
2050;DHT22;8478;49.208;8.806;2023-10-13T06:10:37;17.30;99.90
2050;DHT22;8478;49.208;8.806;2023-10-13T06:13:22;17.30;99.90
2050;DHT22;8478;49.208;8.806;2023-10-13T06:16:16;17.30;99.90
2050;DHT22;8478;49.208;8.806;2023-10-13T06:19:01;17.30;99.90
2050;DHT22;8478;49.208;8.806;2023-10-13T06:21:46;17.30;99.90
2050;DHT22;8478;49.208;8.806;2023-10-13T06:24:30;17.30;99.90
2050;DHT22;8478;49.208;8.806;2023-10-13T06:27:15;17.30;99.90
2050;DHT22;8478;49.208;8.806;2023-10-13T06:30:00;17.30;99.90
2050;DHT22;8478;49.208;8.806;2023-10-13T06:32:27;17.30;99.90
2050;DHT22;8478;49.208;8.806;2023-10-13T06:34:56;17.30;99.90
2050;DHT22;8478;49.208;8.806;2023-10-13T06:37:31;17.30;99.90
2050;DHT22;8478;49.208;8.806;2023-10-13T06:40:01;17.30;99.90
2050;DHT22;8478;49.208;8.806;2023-10-13T06:42:48;17.30;99.90
2050;DHT22;8478;49.208;8.806;2023-10-13T06:45:14;17.30;99.90
2050;DHT22;8478;49.208;8.806;2023-10-13T06:47:42;17.30;99.90
2050;DHT22;8478;49.208;8.806;2023-10-13T06:50:09;17.30;99.90
2050;DHT22;8478;49.208;8.806;2023-10-13T06:52:45;17.20;99.90
2050;DHT22;8478;49.208;8.806;2023-10-13T06:55:12;17.30;99.90
2050;DHT22;8478;49.208;8.806;2023-10-13T06:57:57;17.30;99.90
2050;DHT22;8478;49.208;8.806;2023-10-13T07:00:26;17.20;99.90
2050;DHT22;8478;49.208;8.806;2023-10-13T07:02:55;17.20;99.90
2050;DHT22;8478;49.208;8.806;2023-10-13T07:05:37;17.20;99.90
2050;DHT22;8478;49.208;8.806;2023-10-13T07:08:09;17.20;99.90
2050;DHT22;8478;49.208;8.806;2023-10-13T07:10:50;17.20;99.90
2050;DHT22;8478;49.208;8.806;2023-10-13T07:13:33;17.20;99.90
2050;DHT22;8478;49.208;8.806;2023-10-13T07:16:05;17.20;99.90
2050;DHT22;8478;49.208;8.806;2023-10-13T07:18:33;17.20;99.90
2050;DHT22;8478;49.208;8.806;2023-10-13T07:21:09;17.20;99.90
2050;DHT22;8478;49.208;8.806;2023-10-13T07:23:38;17.20;99.90
2050;DHT22;8478;49.208;8.806;2023-10-13T07:26:05;17.20;99.90
2050;DHT22;8478;49.208;8.806;2023-10-13T07:28:34;17.20;99.90
2050;DHT22;8478;49.208;8.806;2023-10-13T07:31:14;17.20;99.90
2050;DHT22;8478;49.208;8.806;2023-10-13T07:33:40;17.20;99.90
2050;DHT22;8478;49.208;8.806;2023-10-13T07:36:08;17.20;99.90
2050;DHT22;8478;49.208;8.806;2023-10-13T07:38:53;17.20;99.90
2050;DHT22;8478;49.208;8.806;2023-10-13T07:41:38;17.20;99.90
2050;DHT22;8478;49.208;8.806;2023-10-13T07:44:07;17.20;99.90
2050;DHT22;8478;49.208;8.806;2023-10-13T07:46:33;17.20;99.90
2050;DHT22;8478;49.208;8.806;2023-10-13T07:49:01;17.20;99.90
2050;DHT22;8478;49.208;8.806;2023-10-13T07:51:40;17.20;99.90
2050;DHT22;8478;49.208;8.806;2023-10-13T07:54:13;17.20;99.90
2050;DHT22;8478;49.208;8.806;2023-10-13T07:56:47;17.20;99.90
2050;DHT22;8478;49.208;8.806;2023-10-13T07:59:13;17.20;99.90
2050;DHT22;8478;49.208;8.806;2023-10-13T08:01:40;17.20;99.90
2050;DHT22;8478;49.208;8.806;2023-10-13T08:04:11;17.20;99.90
2050;DHT22;8478;49.208;8.806;2023-10-13T08:06:37;17.20;99.90
2050;DHT22;8478;49.208;8.806;2023-10-13T08:09:05;17.20;99.90
2050;DHT22;8478;49.208;8.806;2023-10-13T08:11:36;17.20;99.90
2050;DHT22;8478;49.208;8.806;2023-10-13T08:14:06;17.20;99.90
2050;DHT22;8478;49.208;8.806;2023-10-13T08:16:39;17.20;99.90
2050;DHT22;8478;49.208;8.806;2023-10-13T08:19:18;17.20;99.90
2050;DHT22;8478;49.208;8.806;2023-10-13T08:21:46;17.20;99.90
2050;DHT22;8478;49.208;8.806;2023-10-13T08:24:17;17.20;99.90
2050;DHT22;8478;49.208;8.806;2023-10-13T08:26:52;17.20;99.90
2050;DHT22;8478;49.208;8.806;2023-10-13T08:29:45;17.20;99.90
2050;DHT22;8478;49.208;8.806;2023-10-13T08:32:24;17.20;99.90
2050;DHT22;8478;49.208;8.806;2023-10-13T08:34:53;17.20;99.90
2050;DHT22;8478;49.208;8.806;2023-10-13T08:37:20;17.20;99.90
2050;DHT22;8478;49.208;8.806;2023-10-13T08:39:50;17.20;99.90
2050;DHT22;8478;49.208;8.806;2023-10-13T08:47:57;17.20;99.90
2050;DHT22;8478;49.208;8.806;2023-10-13T08:50:50;17.20;99.90
2050;DHT22;8478;49.208;8.806;2023-10-13T08:56:08;17.20;99.90
2050;DHT22;8478;49.208;8.806;2023-10-13T09:01:31;17.20;99.90
2050;DHT22;8478;49.208;8.806;2023-10-13T09:04:21;17.20;99.90
2050;DHT22;8478;49.208;8.806;2023-10-13T09:06:57;17.20;99.90
2050;DHT22;8478;49.208;8.806;2023-10-13T09:09:45;17.20;99.90
2050;DHT22;8478;49.208;8.806;2023-10-13T09:12:28;17.20;99.90
2050;DHT22;8478;49.208;8.806;2023-10-13T09:14:57;17.30;99.90
2050;DHT22;8478;49.208;8.806;2023-10-13T09:17:26;17.30;99.90
2050;DHT22;8478;49.208;8.806;2023-10-13T09:19:59;17.30;99.90
2050;DHT22;8478;49.208;8.806;2023-10-13T09:22:37;17.20;99.90
2050;DHT22;8478;49.208;8.806;2023-10-13T09:25:03;17.20;99.90
2050;DHT22;8478;49.208;8.806;2023-10-13T09:27:39;17.20;99.90
2050;DHT22;8478;49.208;8.806;2023-10-13T09:30:05;17.30;99.90
2050;DHT22;8478;49.208;8.806;2023-10-13T09:33:01;17.30;99.90
2050;DHT22;8478;49.208;8.806;2023-10-13T09:35:28;17.30;99.90
2050;DHT22;8478;49.208;8.806;2023-10-13T09:37:58;17.30;99.90
2050;DHT22;8478;49.208;8.806;2023-10-13T09:40:24;17.30;99.90
2050;DHT22;8478;49.208;8.806;2023-10-13T09:42:52;17.30;99.90
2050;DHT22;8478;49.208;8.806;2023-10-13T09:45:24;17.30;99.90
2050;DHT22;8478;49.208;8.806;2023-10-13T09:47:53;17.30;99.90
2050;DHT22;8478;49.208;8.806;2023-10-13T09:50:23;17.30;99.90
2050;DHT22;8478;49.208;8.806;2023-10-13T09:52:53;17.30;99.90
2050;DHT22;8478;49.208;8.806;2023-10-13T09:55:29;17.40;99.90
2050;DHT22;8478;49.208;8.806;2023-10-13T09:58:07;17.50;99.90
2050;DHT22;8478;49.208;8.806;2023-10-13T10:00:48;17.50;99.90
2050;DHT22;8478;49.208;8.806;2023-10-13T10:03:23;17.40;99.90
2050;DHT22;8478;49.208;8.806;2023-10-13T10:06:02;17.40;99.90
2050;DHT22;8478;49.208;8.806;2023-10-13T10:08:43;17.40;99.90
2050;DHT22;8478;49.208;8.806;2023-10-13T10:11:40;17.40;99.90
2050;DHT22;8478;49.208;8.806;2023-10-13T10:17:06;17.30;99.90
2050;DHT22;8478;49.208;8.806;2023-10-13T10:19:52;17.40;99.90
2050;DHT22;8478;49.208;8.806;2023-10-13T10:25:06;17.30;99.90
2050;DHT22;8478;49.208;8.806;2023-10-13T10:27:57;17.30;99.90
2050;DHT22;8478;49.208;8.806;2023-10-13T10:30:30;17.30;99.90
2050;DHT22;8478;49.208;8.806;2023-10-13T10:32:59;17.30;99.90
2050;DHT22;8478;49.208;8.806;2023-10-13T10:35:26;17.30;99.90
2050;DHT22;8478;49.208;8.806;2023-10-13T10:38:17;17.30;99.90
2050;DHT22;8478;49.208;8.806;2023-10-13T10:40:56;17.30;99.90
2050;DHT22;8478;49.208;8.806;2023-10-13T10:43:44;17.30;99.90
2050;DHT22;8478;49.208;8.806;2023-10-13T10:46:27;17.40;99.90
2050;DHT22;8478;49.208;8.806;2023-10-13T10:48:56;17.40;99.90
2050;DHT22;8478;49.208;8.806;2023-10-13T10:51:27;17.40;99.90
2050;DHT22;8478;49.208;8.806;2023-10-13T10:54:00;17.40;99.90
2050;DHT22;8478;49.208;8.806;2023-10-13T10:56:38;17.40;99.90
2050;DHT22;8478;49.208;8.806;2023-10-13T10:59:07;17.40;99.90
2050;DHT22;8478;49.208;8.806;2023-10-13T11:01:44;17.40;99.90
2050;DHT22;8478;49.208;8.806;2023-10-13T11:04:13;17.40;99.90
2050;DHT22;8478;49.208;8.806;2023-10-13T11:06:47;17.40;99.90
2050;DHT22;8478;49.208;8.806;2023-10-13T11:09:13;17.40;99.90
2050;DHT22;8478;49.208;8.806;2023-10-13T11:14:32;17.40;99.90
2050;DHT22;8478;49.208;8.806;2023-10-13T11:16:59;17.40;99.90
2050;DHT22;8478;49.208;8.806;2023-10-13T11:19:39;17.40;99.90
2050;DHT22;8478;49.208;8.806;2023-10-13T11:25:01;17.40;99.90
2050;DHT22;8478;49.208;8.806;2023-10-13T11:27:35;17.40;99.90
2050;DHT22;8478;49.208;8.806;2023-10-13T11:30:11;17.40;99.90
2050;DHT22;8478;49.208;8.806;2023-10-13T11:32:43;17.40;99.90
2050;DHT22;8478;49.208;8.806;2023-10-13T11:35:12;17.40;99.90
2050;DHT22;8478;49.208;8.806;2023-10-13T11:37:47;17.40;99.90
2050;DHT22;8478;49.208;8.806;2023-10-13T11:40:22;17.40;99.90
2050;DHT22;8478;49.208;8.806;2023-10-13T11:43:08;17.40;99.90
2050;DHT22;8478;49.208;8.806;2023-10-13T11:45:47;17.50;99.90
2050;DHT22;8478;49.208;8.806;2023-10-13T11:48:32;17.40;99.90
2050;DHT22;8478;49.208;8.806;2023-10-13T11:51:06;17.50;99.90
2050;DHT22;8478;49.208;8.806;2023-10-13T11:53:45;17.50;99.90
2050;DHT22;8478;49.208;8.806;2023-10-13T11:56:18;17.50;99.90
2050;DHT22;8478;49.208;8.806;2023-10-13T11:58:47;17.50;99.90
2050;DHT22;8478;49.208;8.806;2023-10-13T12:01:13;17.50;99.90
2050;DHT22;8478;49.208;8.806;2023-10-13T12:06:23;17.50;99.90
2050;DHT22;8478;49.208;8.806;2023-10-13T12:09:12;17.50;99.90
2050;DHT22;8478;49.208;8.806;2023-10-13T12:11:48;17.50;99.90
2050;DHT22;8478;49.208;8.806;2023-10-13T12:14:16;17.50;99.90
2050;DHT22;8478;49.208;8.806;2023-10-13T12:16:49;17.50;99.90
2050;DHT22;8478;49.208;8.806;2023-10-13T12:19:19;17.50;99.90
2050;DHT22;8478;49.208;8.806;2023-10-13T12:21:55;17.50;99.90
2050;DHT22;8478;49.208;8.806;2023-10-13T12:24:30;17.50;99.90
2050;DHT22;8478;49.208;8.806;2023-10-13T12:27:08;17.50;99.90
2050;DHT22;8478;49.208;8.806;2023-10-13T12:29:49;17.50;99.90
2050;DHT22;8478;49.208;8.806;2023-10-13T12:32:17;17.50;99.90
2050;DHT22;8478;49.208;8.806;2023-10-13T12:34:51;17.50;99.90
2050;DHT22;8478;49.208;8.806;2023-10-13T12:37:23;17.50;99.90
2050;DHT22;8478;49.208;8.806;2023-10-13T12:40:08;17.50;99.90
2050;DHT22;8478;49.208;8.806;2023-10-13T12:42:53;17.50;99.90
2050;DHT22;8478;49.208;8.806;2023-10-13T12:45:43;17.50;99.90
2050;DHT22;8478;49.208;8.806;2023-10-13T12:48:28;17.60;99.90
2050;DHT22;8478;49.208;8.806;2023-10-13T12:51:12;17.60;99.90
2050;DHT22;8478;49.208;8.806;2023-10-13T12:53:54;17.60;99.90
2050;DHT22;8478;49.208;8.806;2023-10-13T12:56:21;17.60;99.90
2050;DHT22;8478;49.208;8.806;2023-10-13T12:58:54;17.60;99.90
2050;DHT22;8478;49.208;8.806;2023-10-13T13:01:20;17.60;99.90
2050;DHT22;8478;49.208;8.806;2023-10-13T13:03:47;17.60;99.90
2050;DHT22;8478;49.208;8.806;2023-10-13T13:08:44;17.60;99.90
2050;DHT22;8478;49.208;8.806;2023-10-13T13:11:10;17.60;99.90
2050;DHT22;8478;49.208;8.806;2023-10-13T13:13:36;17.60;99.90
2050;DHT22;8478;49.208;8.806;2023-10-13T13:16:02;17.60;99.90
2050;DHT22;8478;49.208;8.806;2023-10-13T13:18:29;17.60;99.90
2050;DHT22;8478;49.208;8.806;2023-10-13T13:20:55;17.60;99.90
2050;DHT22;8478;49.208;8.806;2023-10-13T13:23:22;17.60;99.90
2050;DHT22;8478;49.208;8.806;2023-10-13T13:25:52;17.70;99.90
2050;DHT22;8478;49.208;8.806;2023-10-13T13:28:17;17.70;99.90
2050;DHT22;8478;49.208;8.806;2023-10-13T13:30:44;17.70;99.90
2050;DHT22;8478;49.208;8.806;2023-10-13T13:33:10;17.60;99.90
2050;DHT22;8478;49.208;8.806;2023-10-13T13:35:40;17.60;99.90
2050;DHT22;8478;49.208;8.806;2023-10-13T13:38:08;17.60;99.90
2050;DHT22;8478;49.208;8.806;2023-10-13T13:40:58;17.60;99.90
2050;DHT22;8478;49.208;8.806;2023-10-13T13:43:24;17.70;99.90
2050;DHT22;8478;49.208;8.806;2023-10-13T13:46:25;17.70;99.90
2050;DHT22;8478;49.208;8.806;2023-10-13T13:48:58;17.70;99.90
2050;DHT22;8478;49.208;8.806;2023-10-13T13:51:28;17.70;99.90
2050;DHT22;8478;49.208;8.806;2023-10-13T13:53:55;17.70;99.90
2050;DHT22;8478;49.208;8.806;2023-10-13T13:56:21;17.70;99.90
2050;DHT22;8478;49.208;8.806;2023-10-13T13:58:51;17.70;99.90
2050;DHT22;8478;49.208;8.806;2023-10-13T14:01:17;17.70;99.90
2050;DHT22;8478;49.208;8.806;2023-10-13T14:03:45;17.70;99.90
2050;DHT22;8478;49.208;8.806;2023-10-13T14:06:15;17.70;99.90
2050;DHT22;8478;49.208;8.806;2023-10-13T14:08:46;17.70;99.90
2050;DHT22;8478;49.208;8.806;2023-10-13T14:11:15;17.70;99.90
2050;DHT22;8478;49.208;8.806;2023-10-13T14:13:59;17.70;99.90
2050;DHT22;8478;49.208;8.806;2023-10-13T14:16:29;17.70;99.90
2050;DHT22;8478;49.208;8.806;2023-10-13T14:18:55;17.70;99.90
2050;DHT22;8478;49.208;8.806;2023-10-13T14:21:21;17.70;99.90
2050;DHT22;8478;49.208;8.806;2023-10-13T14:23:51;17.70;99.90
2050;DHT22;8478;49.208;8.806;2023-10-13T14:26:20;17.70;99.90
2050;DHT22;8478;49.208;8.806;2023-10-13T14:28:50;17.70;99.90
2050;DHT22;8478;49.208;8.806;2023-10-13T14:31:34;17.70;99.90
2050;DHT22;8478;49.208;8.806;2023-10-13T14:34:03;17.70;99.90
2050;DHT22;8478;49.208;8.806;2023-10-13T14:36:28;17.70;99.90
2050;DHT22;8478;49.208;8.806;2023-10-13T14:38:57;17.70;99.90
2050;DHT22;8478;49.208;8.806;2023-10-13T14:41:24;17.70;99.90
2050;DHT22;8478;49.208;8.806;2023-10-13T14:43:49;17.80;99.90
2050;DHT22;8478;49.208;8.806;2023-10-13T14:46:19;17.70;99.90
2050;DHT22;8478;49.208;8.806;2023-10-13T14:48:51;17.80;99.90
2050;DHT22;8478;49.208;8.806;2023-10-13T14:51:16;17.80;99.90
2050;DHT22;8478;49.208;8.806;2023-10-13T14:53:43;17.80;99.90
2050;DHT22;8478;49.208;8.806;2023-10-13T14:56:13;17.70;99.90
2050;DHT22;8478;49.208;8.806;2023-10-13T14:58:39;17.80;99.90
2050;DHT22;8478;49.208;8.806;2023-10-13T15:01:15;17.80;99.90
2050;DHT22;8478;49.208;8.806;2023-10-13T15:03:45;17.80;99.90
2050;DHT22;8478;49.208;8.806;2023-10-13T15:06:18;17.80;99.90
2050;DHT22;8478;49.208;8.806;2023-10-13T15:08:46;17.80;99.90
2050;DHT22;8478;49.208;8.806;2023-10-13T15:11:13;17.80;99.90
2050;DHT22;8478;49.208;8.806;2023-10-13T15:13:42;17.80;99.90
2050;DHT22;8478;49.208;8.806;2023-10-13T15:16:18;17.80;99.90
2050;DHT22;8478;49.208;8.806;2023-10-13T15:18:44;17.80;99.90
2050;DHT22;8478;49.208;8.806;2023-10-13T15:21:11;17.80;99.90
2050;DHT22;8478;49.208;8.806;2023-10-13T15:23:38;17.80;99.90
2050;DHT22;8478;49.208;8.806;2023-10-13T15:26:11;17.80;99.90
2050;DHT22;8478;49.208;8.806;2023-10-13T15:28:39;17.80;99.90
2050;DHT22;8478;49.208;8.806;2023-10-13T15:31:16;17.80;99.90
2050;DHT22;8478;49.208;8.806;2023-10-13T15:33:52;17.80;99.90
2050;DHT22;8478;49.208;8.806;2023-10-13T15:36:27;17.80;99.90
2050;DHT22;8478;49.208;8.806;2023-10-13T15:38:55;17.80;99.90
2050;DHT22;8478;49.208;8.806;2023-10-13T15:41:26;17.80;99.90
2050;DHT22;8478;49.208;8.806;2023-10-13T15:43:53;17.80;99.90
2050;DHT22;8478;49.208;8.806;2023-10-13T15:46:20;17.80;99.90
2050;DHT22;8478;49.208;8.806;2023-10-13T15:48:50;17.90;99.90
2050;DHT22;8478;49.208;8.806;2023-10-13T15:51:17;18.20;99.90
2050;DHT22;8478;49.208;8.806;2023-10-13T15:53:43;18.40;99.90
2050;DHT22;8478;49.208;8.806;2023-10-13T15:56:13;18.50;99.90
2050;DHT22;8478;49.208;8.806;2023-10-13T15:58:48;18.60;99.90
2050;DHT22;8478;49.208;8.806;2023-10-13T16:01:15;18.70;99.90
2050;DHT22;8478;49.208;8.806;2023-10-13T16:06:15;18.60;99.90
2050;DHT22;8478;49.208;8.806;2023-10-13T16:08:42;18.60;99.90
2050;DHT22;8478;49.208;8.806;2023-10-13T16:11:09;18.50;99.90
2050;DHT22;8478;49.208;8.806;2023-10-13T16:13:45;18.40;99.90
2050;DHT22;8478;49.208;8.806;2023-10-13T16:16:19;18.30;99.90
2050;DHT22;8478;49.208;8.806;2023-10-13T16:18:48;18.20;99.90
2050;DHT22;8478;49.208;8.806;2023-10-13T16:21:14;18.10;99.90
2050;DHT22;8478;49.208;8.806;2023-10-13T16:23:44;18.10;99.90
2050;DHT22;8478;49.208;8.806;2023-10-13T16:26:20;18.10;99.90
2050;DHT22;8478;49.208;8.806;2023-10-13T16:28:49;18.10;99.90
2050;DHT22;8478;49.208;8.806;2023-10-13T16:31:19;18.00;99.90
2050;DHT22;8478;49.208;8.806;2023-10-13T16:33:48;18.00;99.90
2050;DHT22;8478;49.208;8.806;2023-10-13T16:36:14;18.00;99.90
2050;DHT22;8478;49.208;8.806;2023-10-13T16:38:39;18.00;99.90
2050;DHT22;8478;49.208;8.806;2023-10-13T16:41:05;18.00;99.90
2050;DHT22;8478;49.208;8.806;2023-10-13T16:43:33;18.00;99.90
2050;DHT22;8478;49.208;8.806;2023-10-13T16:46:01;18.00;99.90
2050;DHT22;8478;49.208;8.806;2023-10-13T16:48:29;18.00;99.90
2050;DHT22;8478;49.208;8.806;2023-10-13T16:50:59;18.00;99.90
2050;DHT22;8478;49.208;8.806;2023-10-13T16:53:25;18.00;99.90
2050;DHT22;8478;49.208;8.806;2023-10-13T16:55:52;17.90;99.90
2050;DHT22;8478;49.208;8.806;2023-10-13T16:58:18;18.00;99.90
2050;DHT22;8478;49.208;8.806;2023-10-13T17:00:43;17.90;99.90
2050;DHT22;8478;49.208;8.806;2023-10-13T17:03:10;17.90;99.90
2050;DHT22;8478;49.208;8.806;2023-10-13T17:05:44;17.90;99.90
2050;DHT22;8478;49.208;8.806;2023-10-13T17:08:11;17.90;99.90
2050;DHT22;8478;49.208;8.806;2023-10-13T17:10:39;17.90;99.90
2050;DHT22;8478;49.208;8.806;2023-10-13T17:13:05;17.90;99.90
2050;DHT22;8478;49.208;8.806;2023-10-13T17:15:35;17.90;99.90
2050;DHT22;8478;49.208;8.806;2023-10-13T17:18:05;17.90;99.90